Time;durP1;ratioP1;P1;durP2;ratioP2;P2;SDS_P1;SDS_P2;PMS_P1;PMS_P2;Temp;Humidity;BMP_temperature;BMP_pressure;BME280_temperature;BME280_humidity;BME280_pressure;Samples;Min_cycle;Max_cycle;Signal;HPM_P1;HPM_P2
2022/03/22 00:01:51;;;;;;;113.55;37.47;;;6.80;99.90;;;;;;5014894;28;20050;-76
2022/03/22 00:04:21;;;;;;;113.57;38.35;;;6.80;99.90;;;;;;5014500;28;20390;-75
2022/03/22 00:06:47;;;;;;;102.88;37.25;;;6.90;99.90;;;;;;5014033;28;20068;-74
2022/03/22 00:09:13;;;;;;;100.82;36.55;;;6.90;99.90;;;;;;4998265;28;20457;-73
2022/03/22 00:11:39;;;;;;;105.68;35.47;;;6.90;99.90;;;;;;5014457;28;20136;-73
2022/03/22 00:14:08;;;;;;;108.28;36.42;;;7.00;99.90;;;;;;4982219;28;20099;-78
2022/03/22 00:16:35;;;;;;;95.03;34.35;;;7.00;99.90;;;;;;4998811;28;20244;-74
2022/03/22 00:19:01;;;;;;;;;;;7.00;99.90;;;;;;5014624;28;20359;-73
2022/03/22 00:21:27;;;;;;;100.50;34.43;;;7.00;99.90;;;;;;4997414;28;19975;-73
2022/03/22 00:23:54;;;;;;;101.68;35.58;;;7.00;99.90;;;;;;5015936;28;20513;-75
2022/03/22 00:26:20;;;;;;;100.07;35.50;;;7.00;99.90;;;;;;5013798;28;20041;-73
2022/03/22 00:28:46;;;;;;;96.13;34.13;;;7.00;99.90;;;;;;5015097;28;20050;-72
2022/03/22 00:31:12;;;;;;;100.60;34.60;;;7.00;99.90;;;;;;4997327;28;20104;-73
2022/03/22 00:33:38;;;;;;;102.88;36.33;;;7.10;99.90;;;;;;4997362;28;20104;-74
2022/03/22 00:36:05;;;;;;;105.25;35.17;;;7.10;99.90;;;;;;5013229;28;20078;-74
2022/03/22 00:38:31;;;;;;;99.25;35.38;;;7.20;99.90;;;;;;5014164;28;20053;-74
2022/03/22 00:40:58;;;;;;;99.55;35.47;;;7.20;99.90;;;;;;4996946;28;20056;-74
2022/03/22 00:43:24;;;;;;;99.53;34.35;;;7.20;99.90;;;;;;4997492;28;20356;-73
2022/03/22 00:45:50;;;;;;;98.13;35.65;;;7.20;99.90;;;;;;5013019;28;20339;-75
2022/03/22 00:48:17;;;;;;;103.25;34.83;;;7.20;99.90;;;;;;5012398;28;20069;-74
2022/03/22 00:50:44;;;;;;;;;;;7.20;99.90;;;;;;5013284;28;20057;-73
2022/03/22 00:53:12;;;;;;;97.45;35.30;;;7.20;99.90;;;;;;5014042;28;19991;-78
2022/03/22 00:55:40;;;;;;;102.32;33.88;;;7.20;99.90;;;;;;4996648;28;20057;-73
2022/03/22 00:58:06;;;;;;;96.10;35.13;;;7.20;99.90;;;;;;4980809;28;20037;-74
2022/03/22 01:00:33;;;;;;;100.57;34.78;;;7.20;99.90;;;;;;5013783;28;20046;-73
2022/03/22 01:03:00;;;;;;;100.50;35.03;;;7.20;99.90;;;;;;4980568;28;20054;-73
2022/03/22 01:05:27;;;;;;;96.45;35.17;;;7.20;99.90;;;;;;5012547;28;20061;-73
2022/03/22 01:07:57;;;;;;;100.75;35.72;;;7.20;99.90;;;;;;5013409;28;20041;-74
2022/03/22 01:10:25;;;;;;;94.45;34.78;;;7.20;99.90;;;;;;4995932;28;20054;-74
2022/03/22 01:12:51;;;;;;;100.15;35.42;;;7.20;99.90;;;;;;5013782;28;20061;-73
2022/03/22 01:15:19;;;;;;;101.88;37.90;;;7.20;99.90;;;;;;5013526;28;20093;-73
2022/03/22 01:17:48;;;;;;;99.03;36.25;;;7.20;99.90;;;;;;5012032;28;20493;-74
2022/03/22 01:20:14;;;;;;;100.03;36.60;;;7.20;99.90;;;;;;4996175;28;20049;-78
2022/03/22 01:22:47;;;;;;;108.03;36.35;;;7.20;99.90;;;;;;5012234;28;20188;-74
2022/03/22 01:25:15;;;;;;;104.00;37.33;;;7.10;99.90;;;;;;5012185;28;20054;-77
2022/03/22 01:27:43;;;;;;;95.53;35.35;;;7.10;99.90;;;;;;5011550;28;20513;-75
2022/03/22 01:30:10;;;;;;;98.75;35.83;;;7.00;99.90;;;;;;4996060;28;20050;-73
2022/03/22 01:32:36;;;;;;;105.40;38.17;;;7.00;99.90;;;;;;5011861;28;20050;-73
2022/03/22 01:35:04;;;;;;;99.60;37.85;;;6.90;99.90;;;;;;4995369;28;20068;-74
2022/03/22 01:37:30;;;;;;;101.18;36.40;;;6.90;99.90;;;;;;5011749;28;20053;-73
2022/03/22 01:39:57;;;;;;;103.47;37.13;;;6.80;99.90;;;;;;5012111;28;20100;-75
2022/03/22 01:42:23;;;;;;;107.07;37.15;;;6.70;99.90;;;;;;4995575;28;20053;-73
2022/03/22 01:44:53;;;;;;;109.75;37.88;;;6.70;99.90;;;;;;5012951;28;20081;-73
2022/03/22 01:47:23;;;;;;;101.70;35.42;;;6.60;99.90;;;;;;5011416;28;20444;-72
2022/03/22 01:49:50;;;;;;;101.70;35.75;;;6.60;99.90;;;;;;5011879;28;20061;-73
2022/03/22 01:52:20;;;;;;;101.05;36.10;;;6.50;99.90;;;;;;5013046;28;20438;-77
2022/03/22 01:54:49;;;;;;;104.95;35.08;;;6.50;99.90;;;;;;5011848;28;20054;-73
2022/03/22 01:57:15;;;;;;;107.05;37.05;;;6.50;99.90;;;;;;5013086;28;20105;-73
2022/03/22 01:59:41;;;;;;;100.55;35.45;;;6.50;99.90;;;;;;5012717;28;20437;-74
2022/03/22 02:07:40;;;;;;;102.78;36.80;;;6.40;99.90;;;;;;5013730;28;20386;-73
2022/03/22 02:10:06;;;;;;;97.55;36.60;;;6.40;99.90;;;;;;5012092;28;20108;-73
2022/03/22 02:12:32;;;;;;;106.45;37.35;;;6.40;99.90;;;;;;5011929;28;20056;-73
2022/03/22 02:14:58;;;;;;;102.13;35.83;;;6.40;99.90;;;;;;5011975;28;20409;-75
2022/03/22 02:17:24;;;;;;;106.30;37.75;;;6.40;99.90;;;;;;5011237;28;20046;-73
2022/03/22 02:19:50;;;;;;;100.65;35.67;;;6.40;99.90;;;;;;4979276;28;20090;-73
2022/03/22 02:22:19;;;;;;;98.78;36.63;;;6.40;99.90;;;;;;5012814;28;20045;-72
2022/03/22 02:24:45;;;;;;;104.40;36.90;;;6.40;99.90;;;;;;5013677;28;20061;-72
2022/03/22 02:27:11;;;;;;;101.40;36.47;;;6.40;99.90;;;;;;5013513;28;20038;-72
2022/03/22 02:29:37;;;;;;;100.78;38.50;;;6.40;99.90;;;;;;4996258;28;20067;-73
2022/03/22 02:32:05;;;;;;;95.85;36.35;;;6.30;99.90;;;;;;5012124;28;20061;-73
2022/03/22 02:34:34;;;;;;;103.72;37.85;;;6.30;99.90;;;;;;5011939;28;20370;-73
2022/03/22 02:37:01;;;;;;;99.32;36.45;;;6.30;99.90;;;;;;4995673;28;20037;-74
2022/03/22 02:39:26;;;;;;;100.38;36.72;;;6.30;99.90;;;;;;4995834;28;20064;-73
2022/03/22 02:41:52;;;;;;;108.30;37.80;;;6.30;99.90;;;;;;4995801;28;20050;-72
2022/03/22 02:44:20;;;;;;;104.78;38.85;;;6.30;99.90;;;;;;5011936;28;20100;-72
2022/03/22 02:46:46;;;;;;;;;;;6.30;99.90;;;;;;5013912;28;20041;-73
2022/03/22 02:49:13;;;;;;;99.53;35.88;;;6.30;99.90;;;;;;5011174;28;19956;-73
2022/03/22 02:51:39;;;;;;;94.78;35.22;;;6.20;99.90;;;;;;4995335;28;20180;-73
2022/03/22 02:54:05;;;;;;;112.72;38.00;;;6.20;99.90;;;;;;5012935;28;20057;-73
2022/03/22 02:56:31;;;;;;;112.47;37.45;;;6.20;99.90;;;;;;5011091;28;20050;-73
2022/03/22 02:58:57;;;;;;;105.07;37.13;;;6.20;99.90;;;;;;4995273;28;20095;-74
2022/03/22 03:01:23;;;;;;;108.82;38.38;;;6.20;99.90;;;;;;4978461;28;20496;-77
2022/03/22 03:03:49;;;;;;;107.47;39.13;;;6.20;99.90;;;;;;5012544;28;20084;-73
2022/03/22 03:06:15;;;;;;;105.07;38.10;;;6.20;99.90;;;;;;5010793;28;20053;-73
2022/03/22 03:08:41;;;;;;;109.00;37.58;;;6.10;99.90;;;;;;4994751;28;20300;-73
2022/03/22 03:11:08;;;;;;;108.90;37.90;;;6.20;99.90;;;;;;4994902;28;20137;-72
2022/03/22 03:16:19;;;;;;;110.60;37.38;;;6.10;99.90;;;;;;5012498;28;20438;-72
2022/03/22 03:18:45;;;;;;;108.25;38.45;;;6.10;99.90;;;;;;5012559;28;20057;-73
2022/03/22 03:21:11;;;;;;;114.65;39.78;;;6.00;99.90;;;;;;5011974;28;20045;-74
2022/03/22 03:23:37;;;;;;;104.28;37.17;;;6.00;99.90;;;;;;5011061;28;20041;-74
2022/03/22 03:26:03;;;;;;;96.75;36.13;;;6.00;99.90;;;;;;4994695;28;20129;-74
2022/03/22 03:28:29;;;;;;;108.82;38.95;;;6.00;99.90;;;;;;5012526;28;20054;-72
2022/03/22 03:30:54;;;;;;;108.68;38.03;;;6.00;99.90;;;;;;4981976;28;20050;-72
2022/03/22 03:33:20;;;;;;;102.10;38.45;;;5.90;99.90;;;;;;5015678;28;20490;-73
2022/03/22 03:35:46;;;;;;;103.28;38.58;;;5.90;99.90;;;;;;5015457;28;20045;-73
2022/03/22 03:38:12;;;;;;;103.63;38.67;;;5.90;99.90;;;;;;5014880;28;20073;-74
2022/03/22 03:43:22;;;;;;;114.05;38.67;;;5.90;99.90;;;;;;5015468;28;20108;-74
2022/03/22 03:48:32;;;;;;;118.18;39.75;;;5.80;99.90;;;;;;5015171;28;20089;-73
2022/03/22 03:50:58;;;;;;;116.63;39.60;;;5.90;99.90;;;;;;5014003;28;20119;-72
2022/03/22 03:53:24;;;;;;;116.28;42.15;;;5.80;99.90;;;;;;5015715;28;20049;-73
2022/03/22 03:55:50;;;;;;;116.30;39.30;;;5.80;99.90;;;;;;5015249;28;20065;-74
2022/03/22 03:58:16;;;;;;;107.93;39.50;;;5.80;99.90;;;;;;5015472;28;20454;-73
2022/03/22 04:00:42;;;;;;;104.20;36.80;;;5.70;99.90;;;;;;5014096;28;20050;-74
2022/03/22 04:03:08;;;;;;;108.53;37.05;;;5.70;99.90;;;;;;4981751;28;20050;-74
2022/03/22 04:05:34;;;;;;;100.75;38.20;;;5.70;99.90;;;;;;4981113;28;20487;-74
2022/03/22 04:07:59;;;;;;;107.47;38.05;;;5.60;99.90;;;;;;5014786;28;20081;-74
2022/03/22 04:10:26;;;;;;;104.78;38.28;;;5.60;99.90;;;;;;5014187;28;20394;-74
2022/03/22 04:12:52;;;;;;;113.10;38.83;;;5.60;99.90;;;;;;5013191;28;20508;-73
2022/03/22 04:15:18;;;;;;;108.18;38.60;;;5.60;99.90;;;;;;5013532;28;20132;-74
2022/03/22 04:17:44;;;;;;;112.65;41.55;;;5.50;99.90;;;;;;4997236;28;20041;-74
2022/03/22 04:20:10;;;;;;;104.05;37.72;;;5.50;99.90;;;;;;5013447;28;20494;-73
2022/03/22 04:22:36;;;;;;;106.15;38.08;;;5.50;99.90;;;;;;5015076;28;20084;-74
2022/03/22 04:25:03;;;;;;;109.50;40.00;;;5.50;99.90;;;;;;5013293;28;20046;-74
2022/03/22 04:32:57;;;;;;;103.70;37.90;;;5.40;99.90;;;;;;5013827;28;20050;-74
2022/03/22 04:35:27;;;;;;;107.15;37.65;;;5.40;99.90;;;;;;5013067;28;20453;-74
2022/03/22 04:37:54;;;;;;;108.53;38.45;;;5.40;99.90;;;;;;5014722;28;20045;-74
2022/03/22 04:40:20;;;;;;;112.25;39.17;;;5.40;99.90;;;;;;5012779;28;20089;-75
2022/03/22 04:42:51;;;;;;;99.80;38.17;;;5.40;99.90;;;;;;4996573;28;20084;-74
2022/03/22 04:45:17;;;;;;;104.57;38.80;;;5.40;99.90;;;;;;4997423;28;20050;-75
2022/03/22 04:47:45;;;;;;;109.82;38.75;;;5.40;99.90;;;;;;4996191;28;20058;-75
2022/03/22 04:50:13;;;;;;;108.63;38.08;;;5.40;99.90;;;;;;5013673;28;20085;-74
2022/03/22 04:58:08;;;;;;;101.85;38.33;;;5.30;99.90;;;;;;5014071;28;20050;-74
2022/03/22 05:00:35;;;;;;;103.82;39.08;;;5.30;99.90;;;;;;5013632;28;20152;-74
2022/03/22 05:03:07;;;;;;;102.93;37.60;;;5.30;99.90;;;;;;5012372;28;20220;-74
2022/03/22 05:08:17;;;;;;;106.53;39.08;;;5.20;99.90;;;;;;5014034;28;20129;-73
2022/03/22 05:10:43;;;;;;;107.72;39.85;;;5.20;99.90;;;;;;5012185;28;20516;-73
2022/03/22 05:13:09;;;;;;;110.07;39.45;;;5.20;99.90;;;;;;5012616;28;20081;-74
2022/03/22 05:15:35;;;;;;;110.93;40.17;;;5.20;99.90;;;;;;5012430;28;20402;-74
2022/03/22 05:18:01;;;;;;;115.15;40.20;;;5.20;99.90;;;;;;4996438;28;20050;-76
2022/03/22 05:20:28;;;;;;;111.33;39.03;;;5.20;99.90;;;;;;4979492;28;20084;-74
2022/03/22 05:22:54;;;;;;;115.55;40.17;;;5.20;99.90;;;;;;5012795;28;20084;-74
2022/03/22 05:25:20;;;;;;;114.25;39.00;;;5.20;99.90;;;;;;4995196;28;20135;-74
2022/03/22 05:27:46;;;;;;;106.13;39.10;;;5.10;99.90;;;;;;5012830;28;20050;-74
2022/03/22 05:30:13;;;;;;;113.97;40.88;;;5.20;99.90;;;;;;4996025;28;20048;-74
2022/03/22 05:32:39;;;;;;;117.40;40.88;;;5.10;99.90;;;;;;5013129;28;20049;-77
2022/03/22 05:35:06;;;;;;;115.93;39.70;;;5.10;99.90;;;;;;4996230;28;20075;-74
2022/03/22 05:37:32;;;;;;;111.47;40.33;;;5.10;99.90;;;;;;5012666;28;20050;-73
2022/03/22 05:39:57;;;;;;;117.65;40.80;;;5.10;99.90;;;;;;5017163;28;20116;-74
2022/03/22 05:42:25;;;;;;;119.65;41.47;;;5.10;99.90;;;;;;4997461;28;20062;-75
2022/03/22 05:44:51;;;;;;;110.30;37.88;;;5.10;99.90;;;;;;5013132;28;20049;-73
2022/03/22 05:47:17;;;;;;;111.72;40.28;;;5.10;99.90;;;;;;4996571;28;20041;-73
2022/03/22 05:49:43;;;;;;;111.22;39.20;;;5.10;99.90;;;;;;4997221;28;20061;-77
2022/03/22 05:52:09;;;;;;;103.68;38.83;;;5.10;99.90;;;;;;5011660;28;20065;-73
2022/03/22 05:54:35;;;;;;;114.00;39.05;;;5.10;99.90;;;;;;5012498;28;20185;-75
2022/03/22 05:57:01;;;;;;;110.72;39.50;;;5.10;99.90;;;;;;4979466;28;20506;-72
2022/03/22 05:59:27;;;;;;;111.25;39.25;;;5.10;99.90;;;;;;4995409;28;20052;-73
2022/03/22 06:01:53;;;;;;;112.72;39.28;;;5.20;99.90;;;;;;5011681;28;20042;-72
2022/03/22 06:04:20;;;;;;;108.15;39.65;;;5.20;99.90;;;;;;5013636;28;20053;-73
2022/03/22 06:06:49;;;;;;;107.22;39.92;;;5.30;99.90;;;;;;5012570;28;20260;-73
2022/03/22 06:09:15;;;;;;;111.35;40.20;;;5.30;99.90;;;;;;5012680;28;20046;-71
2022/03/22 06:11:41;;;;;;;111.70;38.85;;;5.40;99.90;;;;;;5014499;28;20107;-75
2022/03/22 06:14:07;;;;;;;110.18;38.70;;;5.40;99.90;;;;;;5014143;28;20386;-73
2022/03/22 06:16:33;;;;;;;110.82;39.83;;;5.50;99.90;;;;;;5013686;28;20125;-74
2022/03/22 06:18:59;;;;;;;114.95;37.85;;;5.50;99.90;;;;;;5011902;28;20073;-73
2022/03/22 06:21:25;;;;;;;116.85;42.10;;;5.60;99.90;;;;;;5011357;28;20048;-72
2022/03/22 06:23:52;;;;;;;112.80;41.90;;;5.60;99.90;;;;;;5012273;28;20129;-72
2022/03/22 06:26:18;;;;;;;117.83;42.00;;;5.70;99.90;;;;;;4996319;28;20064;-73
2022/03/22 06:28:44;;;;;;;119.43;42.72;;;5.70;99.90;;;;;;4996294;28;20131;-75
2022/03/22 06:31:10;;;;;;;131.02;46.65;;;5.80;99.90;;;;;;5013971;28;20061;-72
2022/03/22 06:33:37;;;;;;;121.78;45.95;;;5.80;99.90;;;;;;5013442;28;20161;-72
2022/03/22 06:36:04;;;;;;;138.73;52.97;;;5.80;99.90;;;;;;4995607;28;20046;-72
2022/03/22 06:38:32;;;;;;;113.03;44.95;;;5.90;99.90;;;;;;4995624;28;20139;-73
2022/03/22 06:40:59;;;;;;;119.68;41.25;;;6.00;99.90;;;;;;5011320;28;20057;-72
2022/03/22 06:43:25;;;;;;;120.15;44.95;;;6.00;99.90;;;;;;5011287;28;20050;-73
2022/03/22 06:45:51;;;;;;;132.82;51.13;;;6.20;99.90;;;;;;4994613;28;20041;-73
2022/03/22 06:48:17;;;;;;;115.65;45.33;;;6.20;99.90;;;;;;5012161;28;20140;-74
2022/03/22 06:50:47;;;;;;;108.37;41.30;;;6.30;99.90;;;;;;5012433;28;20386;-74
2022/03/22 06:53:12;;;;;;;115.93;42.33;;;6.40;99.90;;;;;;4994392;28;20046;-72
2022/03/22 06:55:39;;;;;;;116.13;43.72;;;6.50;99.90;;;;;;5010871;28;20057;-72
2022/03/22 06:58:06;;;;;;;113.93;40.40;;;6.50;99.90;;;;;;5010664;28;20068;-73
2022/03/22 07:00:32;;;;;;;107.75;41.80;;;6.70;99.90;;;;;;5010902;28;20050;-74
2022/03/22 07:03:00;;;;;;;110.95;40.50;;;6.70;99.90;;;;;;5013238;28;20060;-73
2022/03/22 07:05:28;;;;;;;104.65;39.58;;;6.80;99.90;;;;;;4997955;28;20060;-73
2022/03/22 07:07:54;;;;;;;;;;;6.90;99.90;;;;;;5016029;28;20087;-73
2022/03/22 07:10:19;;;;;;;102.38;36.45;;;7.00;99.90;;;;;;5015472;28;19949;-74
2022/03/22 07:12:56;;;;;;;102.45;36.55;;;7.00;99.90;;;;;;5014435;28;20524;-73
2022/03/22 07:15:30;;;;;;;104.05;38.75;;;7.10;99.90;;;;;;5014231;28;20130;-74
2022/03/22 07:17:58;;;;;;;101.88;36.20;;;7.20;99.90;;;;;;4997800;28;20061;-73
2022/03/22 07:20:24;;;;;;;93.60;36.53;;;7.30;99.90;;;;;;5014068;28;20050;-74
2022/03/22 07:22:50;;;;;;;98.20;34.92;;;7.50;99.90;;;;;;5014216;28;20060;-75
2022/03/22 07:25:17;;;;;;;94.72;33.17;;;7.60;99.90;;;;;;5014603;28;20552;-73
2022/03/22 07:27:43;;;;;;;93.73;34.80;;;7.70;99.90;;;;;;5015684;28;20049;-73
2022/03/22 07:30:13;;;;;;;90.65;33.67;;;7.90;99.90;;;;;;4998231;28;20288;-73
2022/03/22 07:32:39;;;;;;;87.85;33.10;;;8.00;99.90;;;;;;5014203;28;20093;-73
2022/03/22 07:35:07;;;;;;;84.68;32.78;;;8.20;99.90;;;;;;5014723;28;20131;-72
2022/03/22 07:37:34;;;;;;;90.13;33.28;;;8.40;99.90;;;;;;5014363;28;20147;-73
2022/03/22 07:40:01;;;;;;;93.00;34.22;;;8.50;99.90;;;;;;5015871;28;20076;-73
2022/03/22 07:42:29;;;;;;;87.57;33.17;;;8.60;99.90;;;;;;5014809;28;20136;-73
2022/03/22 07:44:56;;;;;;;84.68;31.45;;;8.70;99.90;;;;;;4982135;28;20133;-74
2022/03/22 07:47:24;;;;;;;84.05;31.42;;;8.80;99.90;;;;;;4997469;28;20050;-73
2022/03/22 07:55:19;;;;;;;87.25;32.15;;;9.10;99.90;;;;;;5014083;28;20053;-73
2022/03/22 07:57:45;;;;;;;87.78;29.63;;;9.30;99.90;;;;;;5015443;28;20117;-74
2022/03/22 08:00:12;;;;;;;85.95;31.58;;;9.40;99.90;;;;;;5013739;28;20050;-75
2022/03/22 08:02:38;;;;;;;77.63;31.57;;;9.50;99.90;;;;;;5013893;28;20466;-73
2022/03/22 08:05:05;;;;;;;85.75;31.70;;;9.60;99.90;;;;;;4996869;28;20108;-74
2022/03/22 08:07:31;;;;;;;85.40;31.42;;;9.70;99.90;;;;;;4980421;28;20045;-74
2022/03/22 08:09:57;;;;;;;82.18;30.15;;;9.80;99.90;;;;;;5014743;28;20108;-74
2022/03/22 08:12:23;;;;;;;74.65;30.38;;;9.90;99.90;;;;;;5012828;28;20045;-72
2022/03/22 08:14:49;;;;;;;84.47;31.25;;;10.00;99.90;;;;;;4997192;28;20057;-74
2022/03/22 08:17:15;;;;;;;77.78;30.50;;;10.10;99.90;;;;;;5013545;28;20172;-74
2022/03/22 08:19:42;;;;;;;79.93;30.40;;;10.10;99.90;;;;;;5015151;28;20046;-74
2022/03/22 08:22:08;;;;;;;77.90;30.65;;;10.30;99.90;;;;;;5013882;28;20077;-73
2022/03/22 08:24:34;;;;;;;78.70;30.10;;;10.40;99.90;;;;;;4980545;28;20053;-74
2022/03/22 08:27:00;;;;;;;82.55;30.92;;;10.50;99.90;;;;;;5012746;28;20157;-74
2022/03/22 08:29:26;;;;;;;76.40;31.23;;;10.60;99.90;;;;;;4980937;28;20057;-72
2022/03/22 08:31:52;;;;;;;80.95;31.80;;;10.80;99.90;;;;;;5013026;28;20068;-73
2022/03/22 08:34:19;;;;;;;77.90;30.98;;;10.90;99.90;;;;;;5013300;28;20060;-73
2022/03/22 08:36:45;;;;;;;;;;;11.00;99.90;;;;;;4980951;28;20038;-74
2022/03/22 08:39:11;;;;;;;82.93;32.37;;;11.00;99.90;;;;;;5014538;28;19921;-72
2022/03/22 08:41:37;;;;;;;77.45;30.38;;;11.10;99.90;;;;;;5014846;28;20041;-73
2022/03/22 08:44:03;;;;;;;74.07;31.80;;;11.20;99.90;;;;;;5012628;28;20057;-72
2022/03/22 08:46:29;;;;;;;78.85;32.17;;;11.20;99.90;;;;;;5012742;28;20052;-73
2022/03/22 08:48:55;;;;;;;85.93;33.00;;;11.30;99.90;;;;;;5012356;28;20402;-73
2022/03/22 08:51:24;;;;;;;79.05;32.53;;;11.40;99.90;;;;;;5013863;28;20053;-73
2022/03/22 08:53:51;;;;;;;81.65;31.35;;;11.40;99.90;;;;;;5013267;28;20065;-72
2022/03/22 08:56:18;;;;;;;;;;;11.50;99.90;;;;;;5013122;28;20045;-74
2022/03/22 08:58:44;;;;;;;;;;;11.60;99.90;;;;;;4997742;28;19943;-73
2022/03/22 09:01:10;;;;;;;77.87;29.00;;;11.70;99.90;;;;;;5012183;28;19921;-73
2022/03/22 09:03:38;;;;;;;86.80;30.75;;;11.80;99.90;;;;;;5013825;28;20054;-73
2022/03/22 09:06:12;;;;;;;75.88;30.55;;;11.80;99.90;;;;;;4995892;28;20321;-73
2022/03/22 09:08:40;;;;;;;76.10;31.75;;;11.90;99.90;;;;;;4996287;28;20486;-73
2022/03/22 09:11:07;;;;;;;85.90;32.17;;;12.00;99.90;;;;;;4995813;28;20153;-73
2022/03/22 09:13:33;;;;;;;73.82;30.73;;;12.10;99.90;;;;;;4979475;28;20115;-73
2022/03/22 09:15:59;;;;;;;81.40;31.65;;;12.20;99.90;;;;;;5012499;28;20046;-74
2022/03/22 09:18:26;;;;;;;75.18;30.27;;;12.30;99.90;;;;;;5011714;28;20053;-73
2022/03/22 09:20:52;;;;;;;75.88;31.60;;;12.30;99.90;;;;;;5013079;28;20050;-73
2022/03/22 09:23:18;;;;;;;72.83;31.27;;;12.50;99.90;;;;;;5011835;28;20060;-72
2022/03/22 09:25:45;;;;;;;80.70;31.92;;;12.50;99.90;;;;;;5011608;28;20042;-72
2022/03/22 09:28:11;;;;;;;68.90;29.63;;;12.60;99.90;;;;;;5011965;28;20049;-73
2022/03/22 09:30:38;;;;;;;77.38;31.13;;;12.70;99.90;;;;;;5013272;28;20038;-73
2022/03/22 09:33:07;;;;;;;77.20;31.40;;;12.80;99.90;;;;;;5011493;28;20049;-74
2022/03/22 09:35:35;;;;;;;77.57;30.35;;;12.90;99.90;;;;;;4996067;28;20042;-73
2022/03/22 09:38:02;;;;;;;81.40;32.22;;;12.90;99.90;;;;;;5013155;28;20049;-77
2022/03/22 09:40:28;;;;;;;70.38;29.73;;;13.00;99.90;;;;;;4995791;28;20046;-74
2022/03/22 09:42:55;;;;;;;70.35;30.25;;;13.10;99.90;;;;;;5012052;28;20354;-74
2022/03/22 09:45:30;;;;;;;72.78;29.15;;;13.20;99.90;;;;;;4995654;28;20049;-73
2022/03/22 09:47:58;;;;;;;69.70;28.80;;;13.30;99.90;;;;;;5011369;28;20061;-72
2022/03/22 09:51:44;;;;;;;66.53;28.60;;;13.40;99.90;;;;;;5012484;28;20446;-73
2022/03/22 09:53:12;;;;;;;81.53;30.38;;;13.40;99.90;;;;;;5013489;28;20362;-72
2022/03/22 09:55:40;;;;;;;68.50;30.02;;;13.50;99.90;;;;;;5012921;28;20410;-73
2022/03/22 09:58:05;;;;;;;;;;;13.50;99.90;;;;;;5012049;28;20474;-76
2022/03/22 10:00:32;;;;;;;70.27;28.93;;;13.70;99.90;;;;;;5011876;28;20012;-72
2022/03/22 10:02:59;;;;;;;70.43;29.60;;;13.80;99.90;;;;;;5011481;28;20137;-74
2022/03/22 10:05:29;;;;;;;70.78;27.50;;;13.90;99.90;;;;;;4995395;28;20398;-74
2022/03/22 10:08:15;;;;;;;69.07;28.27;;;14.00;99.90;;;;;;4995518;28;20124;-73
2022/03/22 10:10:58;;;;;;;72.38;29.27;;;14.10;99.90;;;;;;5012394;28;20061;-74
2022/03/22 10:13:24;;;;;;;67.90;27.83;;;14.20;99.90;;;;;;5011316;28;20092;-73
2022/03/22 10:15:50;;;;;;;78.10;29.73;;;14.30;99.90;;;;;;4994920;28;20519;-74
2022/03/22 10:18:24;;;;;;;69.55;27.98;;;14.30;99.90;;;;;;4994995;28;20056;-73
2022/03/22 10:20:59;;;;;;;70.95;30.02;;;14.40;99.90;;;;;;5011030;28;20054;-73
2022/03/22 10:23:25;;;;;;;66.60;26.80;;;14.40;99.90;;;;;;4979250;28;20140;-72
2022/03/22 10:26:04;;;;;;;65.15;27.83;;;14.50;99.90;;;;;;4995591;28;20141;-73
2022/03/22 10:28:32;;;;;;;64.22;27.77;;;14.50;99.90;;;;;;5012704;28;20062;-73
2022/03/22 10:30:58;;;;;;;68.43;29.02;;;14.60;99.90;;;;;;5012275;28;20054;-73
2022/03/22 10:33:23;;;;;;;72.55;29.73;;;14.60;99.90;;;;;;4994768;28;20054;-73
2022/03/22 10:35:50;;;;;;;62.78;28.20;;;14.80;99.90;;;;;;5011172;28;20519;-73
2022/03/22 10:38:19;;;;;;;67.15;28.60;;;14.80;99.90;;;;;;5013861;28;20390;-73
2022/03/22 10:40:47;;;;;;;69.20;30.02;;;14.80;99.90;;;;;;5015783;28;20371;-73
2022/03/22 10:43:26;;;;;;;67.43;29.75;;;14.90;99.90;;;;;;5015247;28;20054;-74
2022/03/22 10:45:54;;;;;;;58.53;23.95;;;15.00;99.90;;;;;;4999322;28;20171;-71
2022/03/22 10:48:20;;;;;;;68.20;29.42;;;15.10;99.90;;;;;;5014525;28;20060;-72
2022/03/22 10:50:47;;;;;;;69.57;29.45;;;15.10;99.90;;;;;;4983042;28;20050;-73
2022/03/22 10:53:16;;;;;;;72.05;27.55;;;15.10;99.90;;;;;;5014544;28;20111;-73
2022/03/22 10:55:43;;;;;;;66.43;27.90;;;15.40;98.20;;;;;;5014887;28;20060;-73
2022/03/22 10:58:10;;;;;;;;;;;15.40;96.70;;;;;;4999050;28;20057;-73
2022/03/22 11:00:37;;;;;;;67.15;27.98;;;15.40;97.70;;;;;;5016057;28;19921;-73
2022/03/22 11:03:05;;;;;;;69.65;29.42;;;15.50;98.00;;;;;;4998468;28;20180;-72
2022/03/22 11:05:33;;;;;;;66.53;27.00;;;15.60;96.50;;;;;;5014941;28;20121;-73
2022/03/22 11:07:59;;;;;;;62.45;28.02;;;15.60;98.10;;;;;;4998421;28;20466;-73
2022/03/22 11:10:29;;;;;;;64.57;27.10;;;15.70;99.10;;;;;;5014879;28;20054;-74
2022/03/22 11:12:57;;;;;;;66.57;28.67;;;15.80;98.20;;;;;;5014631;28;20046;-74
2022/03/22 11:15:25;;;;;;;62.88;27.38;;;15.80;96.40;;;;;;5015661;28;20042;-74
2022/03/22 11:17:53;;;;;;;69.47;27.67;;;15.90;94.20;;;;;;5015645;28;20053;-73
2022/03/22 11:20:23;;;;;;;67.43;27.60;;;16.00;96.10;;;;;;4998510;28;20050;-74
2022/03/22 11:22:54;;;;;;;64.20;26.77;;;16.00;91.60;;;;;;5015850;28;20049;-74
2022/03/22 11:25:28;;;;;;;59.60;25.52;;;16.00;93.90;;;;;;5014443;28;20085;-72
2022/03/22 11:28:08;;;;;;;69.55;28.90;;;16.10;93.50;;;;;;4998363;28;20050;-73
2022/03/22 11:30:36;;;;;;;71.22;27.33;;;16.20;94.30;;;;;;5015585;28;20045;-72
2022/03/22 11:35:52;;;;;;;64.20;27.65;;;16.20;92.10;;;;;;5014891;28;20061;-72
2022/03/22 11:38:40;;;;;;;65.65;26.85;;;16.30;93.10;;;;;;5016128;28;20489;-73
2022/03/22 11:44:16;;;;;;;59.67;24.92;;;16.50;94.20;;;;;;5016605;28;20109;-73
2022/03/22 11:46:42;;;;;;;61.57;25.60;;;16.60;94.00;;;;;;5016567;28;20118;-73
2022/03/22 11:49:17;;;;;;;60.15;25.08;;;16.60;91.80;;;;;;5013471;28;20297;-72
2022/03/22 11:51:51;;;;;;;62.63;25.17;;;16.70;92.20;;;;;;5015615;28;20053;-73
2022/03/22 11:54:17;;;;;;;66.90;26.10;;;16.70;92.50;;;;;;5015652;28;20052;-77
2022/03/22 11:56:48;;;;;;;63.33;25.90;;;16.70;93.00;;;;;;5015922;28;20041;-72
2022/03/22 11:59:16;;;;;;;61.75;26.48;;;16.80;92.30;;;;;;5015714;28;20396;-73
2022/03/22 12:01:55;;;;;;;60.85;25.80;;;16.80;91.90;;;;;;4983670;28;20050;-73
2022/03/22 12:04:32;;;;;;;65.10;28.35;;;16.90;90.90;;;;;;5016444;28;20092;-72
2022/03/22 12:06:57;;;;;;;55.45;24.77;;;17.00;90.00;;;;;;5015348;28;20053;-72
2022/03/22 12:09:26;;;;;;;59.80;25.20;;;17.00;90.00;;;;;;4982710;28;20042;-72
2022/03/22 12:11:54;;;;;;;63.05;25.80;;;17.00;90.40;;;;;;4998725;28;20050;-73
2022/03/22 12:14:31;;;;;;;60.80;26.83;;;17.10;88.20;;;;;;4998122;28;20123;-77
2022/03/22 12:16:57;;;;;;;56.33;25.25;;;17.20;90.00;;;;;;5013897;28;20347;-72
2022/03/22 12:19:41;;;;;;;55.38;23.98;;;17.30;87.20;;;;;;4981434;28;20054;-73
2022/03/22 12:22:08;;;;;;;61.80;25.60;;;17.30;88.90;;;;;;5013968;28;20528;-74
2022/03/22 12:24:35;;;;;;;64.80;25.25;;;17.50;87.30;;;;;;5014148;28;20136;-73
2022/03/22 12:27:08;;;;;;;58.78;24.15;;;17.60;88.00;;;;;;5015312;28;20057;-74
2022/03/22 12:29:42;;;;;;;58.15;24.50;;;17.70;86.00;;;;;;5015717;28;20106;-73
2022/03/22 12:32:21;;;;;;;60.13;24.25;;;17.70;87.40;;;;;;5014045;28;20364;-75
2022/03/22 12:34:48;;;;;;;57.83;25.30;;;17.70;84.70;;;;;;5014923;28;20085;-73
2022/03/22 12:37:17;;;;;;;;;;;17.70;84.80;;;;;;4999314;28;20053;-73
2022/03/22 12:39:44;;;;;;;59.97;24.77;;;17.70;84.40;;;;;;5015637;28;19918;-74
2022/03/22 12:42:13;;;;;;;57.33;23.45;;;17.70;84.60;;;;;;4998523;28;20073;-74
2022/03/22 12:44:39;;;;;;;56.20;22.48;;;17.80;82.90;;;;;;5015391;28;20053;-71
2022/03/22 12:47:06;;;;;;;63.30;22.77;;;17.80;80.60;;;;;;5016112;28;20111;-74
2022/03/22 12:49:38;;;;;;;;;;;17.80;80.60;;;;;;5000950;28;20118;-73
2022/03/22 12:52:08;;;;;;;56.67;22.63;;;17.90;79.40;;;;;;5015422;28;19991;-72
2022/03/22 12:54:42;;;;;;;50.30;21.77;;;17.90;77.10;;;;;;5014310;28;20367;-74
2022/03/22 12:57:10;;;;;;;50.63;22.42;;;17.80;78.60;;;;;;5015911;28;20082;-74
2022/03/22 12:59:37;;;;;;;53.40;21.33;;;18.00;73.20;;;;;;5015906;28;20057;-74
2022/03/22 13:02:06;;;;;;;56.13;21.83;;;18.00;77.00;;;;;;5018667;28;20052;-74
2022/03/22 13:04:46;;;;;;;53.58;20.40;;;18.00;75.30;;;;;;5017551;28;20056;-74
2022/03/22 13:07:13;;;;;;;52.25;22.60;;;18.00;76.90;;;;;;5001144;28;20068;-74
2022/03/22 13:12:24;;;;;;;48.65;20.50;;;18.10;77.40;;;;;;5014542;28;20042;-74
2022/03/22 13:15:04;;;;;;;43.20;17.67;;;18.10;75.00;;;;;;5014136;28;20060;-72
2022/03/22 13:17:49;;;;;;;50.05;19.90;;;18.20;73.50;;;;;;5015754;28;20074;-71